Time;durP1;ratioP1;P1;durP2;ratioP2;P2;SDS_P1;SDS_P2;PMS_P1;PMS_P2;Temp;Humidity;BMP_temperature;BMP_pressure;BME280_temperature;BME280_humidity;BME280_pressure;Samples;Min_cycle;Max_cycle;Signal;HPM_P1;HPM_P2
2022/10/15 00:00:31;;;;;;;18.35;8.90;;;;;;;6.90;71.56;100394.16;4993104;28;20065;-92
2022/10/15 00:02:57;;;;;;;18.52;8.75;;;;;;;6.81;71.07;100374.81;4992461;28;20460;-90
2022/10/15 00:05:23;;;;;;;22.85;8.32;;;;;;;6.74;70.06;100341.59;4976043;28;20049;-90
2022/10/15 00:07:49;;;;;;;21.92;8.27;;;;;;;6.98;70.00;100368.38;5009625;28;20042;-90
2022/10/15 00:10:15;;;;;;;21.42;9.10;;;;;;;6.84;69.98;100365.31;4993013;28;20073;-90
2022/10/15 00:12:42;;;;;;;19.42;7.78;;;;;;;7.11;69.62;100414.13;4992383;28;20050;-91
2022/10/15 00:15:09;;;;;;;21.10;9.07;;;;;;;7.01;69.88;100392.31;4994143;28;20034;-90
2022/10/15 00:17:36;;;;;;;18.35;8.23;;;;;;;7.10;69.93;100408.97;4992968;28;20463;-90
2022/10/15 00:20:08;;;;;;;19.77;8.27;;;;;;;7.11;70.07;100405.97;5012565;28;20042;-90
2022/10/15 00:22:36;;;;;;;16.65;8.38;;;;;;;7.11;70.04;100405.16;4979359;28;20054;-91
2022/10/15 00:25:04;;;;;;;25.00;8.80;;;;;;;6.90;68.96;100349.88;4992443;28;20046;-91
2022/10/15 00:27:30;;;;;;;21.60;8.05;;;;;;;6.97;69.66;100372.19;4992549;28;20030;-90
2022/10/15 00:29:59;;;;;;;20.13;9.27;;;;;;;7.14;69.88;100400.03;4976154;28;20136;-92
2022/10/15 00:32:25;;;;;;;16.80;8.27;;;;;;;6.84;69.72;100362.59;4992497;28;20792;-91
2022/10/15 00:34:51;;;;;;;15.45;8.35;;;;;;;7.08;69.72;100398.34;5008742;28;20145;-91
2022/10/15 00:37:19;;;;;;;19.33;8.13;;;;;;;6.96;69.81;100403.19;5011058;28;20043;-92
2022/10/15 00:39:46;;;;;;;19.35;8.20;;;;;;;6.96;70.02;100384.97;4996005;28;20485;-91
2022/10/15 00:42:13;;;;;;;20.35;8.57;;;;;;;6.89;70.25;100380.81;4979924;28;20061;-90
2022/10/15 00:44:58;;;;;;;17.00;7.70;;;;;;;6.73;70.09;100355.47;5012451;28;20541;-91
2022/10/15 00:47:26;;;;;;;23.30;7.82;;;;;;;6.79;70.15;100366.13;5012209;28;20050;-92
2022/10/15 00:50:09;;;;;;;20.75;8.23;;;;;;;6.67;70.03;100349.19;4994705;28;20468;-91
2022/10/15 00:52:54;;;;;;;19.90;8.68;;;;;;;7.24;69.56;100421.00;4987555;28;20449;-90
2022/10/15 00:55:30;;;;;;;17.43;8.03;;;;;;;6.85;69.34;100352.53;4995581;28;20046;-90
2022/10/15 00:58:09;;;;;;;18.83;7.60;;;;;;;7.09;69.21;100378.25;4995579;28;20448;-91
2022/10/15 01:00:35;;;;;;;16.75;7.95;;;;;;;6.83;69.53;100341.94;4979726;28;20046;-92
2022/10/15 01:03:02;;;;;;;22.40;8.83;;;;;;;7.16;69.48;100397.88;4979562;28;20045;-92
2022/10/15 01:05:28;;;;;;;16.20;7.78;;;;;;;6.97;69.32;100355.88;4995622;28;20281;-93
2022/10/15 01:07:54;;;;;;;18.98;8.13;;;;;;;7.29;69.45;100421.06;4994972;28;20494;-93
2022/10/15 01:10:24;;;;;;;22.90;8.80;;;;;;;7.27;69.32;100407.69;4995367;28;20550;-91
2022/10/15 01:13:27;;;;;;;15.75;7.95;;;;;;;7.49;69.19;100425.78;4994500;28;20046;-90
2022/10/15 01:16:18;;;;;;;16.83;7.88;;;;;;;7.15;68.71;100385.34;4990665;28;20046;-90
2022/10/15 01:19:14;;;;;;;26.88;8.65;;;;;;;7.43;68.77;100427.66;4970098;28;20108;-92
2022/10/15 01:21:55;;;;;;;18.48;7.70;;;;;;;7.16;69.23;100397.06;4974233;28;20034;-90
2022/10/15 01:24:42;;;;;;;16.50;7.45;;;;;;;7.38;69.36;100432.22;5011539;28;20042;-90
2022/10/15 01:27:17;;;;;;;22.02;7.45;;;;;;;7.38;68.90;100429.50;5013418;28;20046;-91
2022/10/15 01:30:02;;;;;;;22.17;7.97;;;;;;;7.35;69.00;100440.91;5004855;28;20629;-90
2022/10/15 01:32:35;;;;;;;17.23;8.07;;;;;;;7.15;69.23;100422.59;5009679;28;20095;-89
2022/10/15 01:35:08;;;;;;;17.52;8.73;;;;;;;7.25;69.59;100436.25;5019632;28;20045;-92
2022/10/15 01:37:58;;;;;;;14.45;7.30;;;;;;;6.80;69.34;100369.66;5024588;28;20096;-91
2022/10/15 01:40:28;;;;;;;18.50;8.13;;;;;;;7.24;69.58;100431.88;4995462;28;20038;-91
2022/10/15 01:43:02;;;;;;;21.52;9.18;;;;;;;7.04;69.37;100398.06;4995057;28;20045;-90
2022/10/15 01:45:51;;;;;;;24.42;8.65;;;;;;;7.03;68.97;100390.19;4978573;28;20049;-93
2022/10/15 01:48:42;;;;;;;22.60;9.02;;;;;;;7.19;69.06;100404.69;4994513;28;20042;-92
2022/10/15 01:51:11;;;;;;;20.73;9.17;;;;;;;7.25;68.77;100404.44;4979209;28;20042;-91
2022/10/15 01:53:39;;;;;;;19.77;8.57;;;;;;;7.02;68.83;100364.09;4994995;28;20041;-92
2022/10/15 01:56:11;;;;;;;22.60;8.93;;;;;;;7.14;69.20;100385.59;4995364;28;20042;-91
2022/10/15 01:58:41;;;;;;;24.55;9.68;;;;;;;6.97;68.87;100347.72;4995082;28;20574;-90
2022/10/15 02:01:07;;;;;;;20.95;9.23;;;;;;;7.09;68.87;100367.38;4994478;28;20048;-91
2022/10/15 02:03:46;;;;;;;20.85;9.20;;;;;;;7.09;68.69;100358.41;5013563;28;20037;-92
2022/10/15 02:06:19;;;;;;;26.60;10.20;;;;;;;7.12;68.49;100369.56;5015042;28;20048;-90
2022/10/15 02:09:11;;;;;;;21.52;10.02;;;;;;;7.53;68.40;100435.03;5015517;28;20526;-92
2022/10/15 02:12:06;;;;;;;17.52;9.38;;;;;;;7.17;67.97;100375.00;4998385;28;20056;-91
2022/10/15 02:14:41;;;;;;;24.65;9.73;;;;;;;7.42;67.75;100409.69;4994493;28;20100;-91
2022/10/15 02:17:11;;;;;;;24.85;9.57;;;;;;;7.38;67.61;100405.03;5001297;28;20044;-91
2022/10/15 02:19:51;;;;;;;19.60;8.30;;;;;;;7.43;66.96;100405.88;4998316;28;20047;-90
2022/10/15 02:22:20;;;;;;;17.60;8.00;;;;;;;7.35;66.84;100405.56;5014414;28;20072;-91
2022/10/15 02:24:55;;;;;;;15.35;7.97;;;;;;;7.12;66.49;100371.44;4997837;28;20034;-91
2022/10/15 02:27:25;;;;;;;20.65;9.35;;;;;;;7.61;66.96;100459.00;4998151;28;20550;-91
2022/10/15 02:29:54;;;;;;;15.27;8.20;;;;;;;7.21;66.99;100392.44;5012136;28;20460;-93
2022/10/15 02:32:21;;;;;;;16.70;7.97;;;;;;;7.27;67.09;100410.41;5000659;28;20037;-91
2022/10/15 02:34:50;;;;;;;17.42;8.30;;;;;;;7.12;67.43;100404.06;4997571;28;20074;-90
2022/10/15 02:37:21;;;;;;;23.38;9.15;;;;;;;7.30;67.19;100419.97;4997346;28;20053;-90
2022/10/15 02:39:47;;;;;;;16.65;8.05;;;;;;;7.14;67.46;100388.31;5004037;28;20112;-94
2022/10/15 02:42:16;;;;;;;26.65;8.98;;;;;;;7.25;67.37;100415.31;4998046;28;20514;-91
2022/10/15 02:44:42;;;;;;;16.15;7.88;;;;;;;7.14;67.13;100391.03;5000505;28;20495;-90
2022/10/15 02:47:10;;;;;;;19.63;8.50;;;;;;;7.32;67.35;100425.13;4997641;28;20030;-91
2022/10/15 02:49:36;;;;;;;;;;;;;;;7.62;67.27;100462.56;5017600;28;20038;-92
2022/10/15 02:52:03;;;;;;;27.30;8.18;;;;;;;7.15;66.96;100373.63;5006078;28;19966;-91
2022/10/15 02:54:29;;;;;;;17.23;8.38;;;;;;;7.59;66.37;100444.88;5017362;28;20045;-91
2022/10/15 02:56:55;;;;;;;20.55;7.97;;;;;;;7.04;65.80;100351.03;5001713;28;20046;-92
2022/10/15 02:59:22;;;;;;;16.43;8.37;;;;;;;7.44;66.90;100439.34;4998371;28;20439;-91
2022/10/15 03:01:49;;;;;;;;;;;;;;;7.62;67.53;100466.09;5007382;28;20042;-91
2022/10/15 03:04:15;;;;;;;17.40;7.40;;;;;;;7.21;67.45;100405.22;5014478;28;20025;-90
2022/10/15 03:06:42;;;;;;;18.42;7.00;;;;;;;7.39;67.13;100436.59;5023811;28;20041;-91
2022/10/15 03:09:08;;;;;;;16.75;7.72;;;;;;;7.21;67.39;100405.22;5011986;28;20049;-92
2022/10/15 03:11:34;;;;;;;20.02;8.75;;;;;;;7.45;67.34;100440.97;5013740;28;20523;-92
2022/10/15 03:14:01;;;;;;;20.45;8.07;;;;;;;7.48;67.52;100460.34;5023285;28;20095;-93
2022/10/15 03:16:29;;;;;;;23.55;8.02;;;;;;;7.35;67.45;100430.03;4994395;28;20172;-92
2022/10/15 03:18:58;;;;;;;26.33;8.40;;;;;;;7.08;66.48;100373.88;4981335;28;20038;-92
2022/10/15 03:21:24;;;;;;;22.77;8.15;;;;;;;7.26;66.66;100397.91;5018808;28;20041;-93
2022/10/15 03:23:57;;;;;;;17.50;8.30;;;;;;;7.36;66.58;100415.38;5030970;28;20033;-92
2022/10/15 03:26:23;;;;;;;15.38;7.93;;;;;;;7.16;66.50;100384.25;5028129;28;20530;-92
2022/10/15 03:28:50;;;;;;;21.50;8.68;;;;;;;7.53;66.94;100446.75;4997439;28;20046;-92
2022/10/15 03:31:30;;;;;;;20.08;8.02;;;;;;;7.45;67.14;100440.97;4998098;28;20125;-93
2022/10/15 03:33:58;;;;;;;17.10;7.97;;;;;;;7.19;67.23;100399.25;4996961;28;20133;-92
2022/10/15 03:36:26;;;;;;;;;;;;;;;7.58;67.43;100477.78;5027161;28;20124;-93
2022/10/15 03:38:53;;;;;;;17.40;7.53;;;;;;;7.43;67.75;100457.56;5015206;28;19928;-92
2022/10/15 03:41:19;;;;;;;22.45;7.50;;;;;;;7.50;67.62;100458.16;4997340;28;20125;-92
2022/10/15 03:43:46;;;;;;;21.67;7.50;;;;;;;7.74;67.12;100479.47;5030637;28;20037;-92
2022/10/15 03:46:15;;;;;;;22.80;8.18;;;;;;;7.71;66.64;100475.38;4998702;28;20503;-92
2022/10/15 03:48:48;;;;;;;16.38;7.78;;;;;;;7.24;66.76;100416.38;5006547;28;20037;-91
2022/10/15 03:51:18;;;;;;;20.17;8.68;;;;;;;7.51;67.12;100451.63;4979041;28;20049;-92
2022/10/15 03:53:45;;;;;;;20.05;8.20;;;;;;;7.72;67.29;100485.22;5009120;28;20061;-93
2022/10/15 03:56:11;;;;;;;24.80;7.80;;;;;;;7.34;67.08;100412.91;5010566;28;20067;-92
2022/10/15 03:58:40;;;;;;;24.65;8.48;;;;;;;7.35;66.92;100424.59;5024942;28;20034;-92
2022/10/15 04:01:14;;;;;;;18.60;8.15;;;;;;;7.27;66.76;100401.44;5014500;28;20034;-91
2022/10/15 04:03:41;;;;;;;20.63;7.97;;;;;;;7.55;66.80;100443.75;5019252;28;20049;-92
2022/10/15 04:06:09;;;;;;;25.42;8.52;;;;;;;7.71;66.74;100466.41;5019420;28;20088;-91
2022/10/15 04:08:36;;;;;;;18.02;7.90;;;;;;;7.22;66.70;100375.06;5013671;28;20049;-91
2022/10/15 04:11:17;;;;;;;23.70;7.90;;;;;;;7.52;66.17;100430.69;4996941;28;20514;-92
2022/10/15 04:13:48;;;;;;;33.10;9.38;;;;;;;8.00;66.29;100491.28;4996765;28;20522;-90
2022/10/15 04:16:14;;;;;;;23.95;8.88;;;;;;;7.78;65.70;100466.97;5001380;28;20064;-90
2022/10/15 04:18:41;;;;;;;18.55;7.95;;;;;;;7.42;66.18;100417.84;4996866;28;20403;-91
2022/10/15 04:21:08;;;;;;;25.10;8.98;;;;;;;7.81;65.99;100471.06;4996126;28;20038;-91
2022/10/15 04:23:34;;;;;;;15.48;7.65;;;;;;;8.02;65.76;100491.88;5006688;28;20140;-91
2022/10/15 04:26:20;;;;;;;24.00;8.10;;;;;;;7.58;65.77;100421.44;5012362;28;20075;-91
2022/10/15 04:28:47;;;;;;;24.30;8.07;;;;;;;7.76;65.63;100469.97;4982576;28;20049;-92
2022/10/15 04:31:14;;;;;;;23.38;8.43;;;;;;;7.40;65.84;100397.44;5008125;28;20030;-92
2022/10/15 04:33:40;;;;;;;24.35;8.32;;;;;;;7.90;66.26;100489.34;4992722;28;20040;-92
2022/10/15 04:36:12;;;;;;;24.88;8.20;;;;;;;7.71;66.39;100469.94;5013101;28;20455;-92
2022/10/15 04:39:01;;;;;;;24.38;7.72;;;;;;;7.54;66.03;100440.19;5016012;28;20442;-92
2022/10/15 04:41:40;;;;;;;19.90;8.00;;;;;;;7.54;66.05;100450.28;5006368;28;20053;-91
2022/10/15 04:44:09;;;;;;;24.95;8.30;;;;;;;7.48;66.18;100437.72;5041320;28;20076;-93
2022/10/15 04:46:37;;;;;;;17.80;7.63;;;;;;;7.82;65.88;100468.09;5048582;28;20417;-91
2022/10/15 04:49:19;;;;;;;17.90;7.38;;;;;;;7.66;65.77;100433.75;5014768;28;20570;-92
2022/10/15 04:51:46;;;;;;;17.73;7.43;;;;;;;7.66;65.49;100418.22;4990966;28;20132;-89
2022/10/15 04:54:17;;;;;;;20.02;7.40;;;;;;;7.95;65.35;100464.06;5027370;28;20135;-91
2022/10/15 04:57:04;;;;;;;21.73;8.27;;;;;;;8.13;64.98;100503.59;5030768;28;20100;-90
2022/10/15 04:59:31;;;;;;;21.58;8.63;;;;;;;7.86;65.38;100468.38;5017175;28;20029;-91
2022/10/15 05:02:15;;;;;;;29.23;10.60;;;;;;;7.79;65.10;100456.94;5027359;28;20111;-93
2022/10/15 05:04:43;;;;;;;26.10;10.80;;;;;;;7.85;65.13;100453.16;5029619;28;20092;-90
2022/10/15 05:07:09;;;;;;;23.23;9.07;;;;;;;7.80;65.68;100437.59;5016205;28;20041;-92
2022/10/15 05:09:36;;;;;;;24.83;9.40;;;;;;;7.79;65.34;100444.13;5028165;28;20483;-91
2022/10/15 05:12:02;;;;;;;30.73;9.10;;;;;;;7.86;65.09;100462.94;4995944;28;20042;-92
2022/10/15 05:14:29;;;;;;;20.13;8.13;;;;;;;8.09;65.13;100492.44;5012044;28;20045;-91
2022/10/15 05:17:05;;;;;;;13.20;7.60;;;;;;;8.06;65.12;100481.25;4977458;28;20073;-93
2022/10/15 05:19:38;;;;;;;23.42;8.60;;;;;;;8.08;65.06;100485.34;5008021;28;20049;-92
2022/10/15 05:22:06;;;;;;;31.50;8.15;;;;;;;7.93;64.69;100460.78;4981767;28;20093;-92
2022/10/15 05:24:35;;;;;;;21.85;9.02;;;;;;;7.85;64.92;100443.06;5030646;28;20044;-93
2022/10/15 05:27:10;;;;;;;31.38;9.85;;;;;;;7.84;64.62;100454.22;5002583;28;20091;-93
2022/10/15 05:29:38;;;;;;;27.02;8.75;;;;;;;8.22;64.81;100512.91;4980138;28;20144;-92
2022/10/15 05:32:05;;;;;;;18.42;7.75;;;;;;;8.31;64.44;100515.91;4997240;28;20045;-93
2022/10/15 05:34:32;;;;;;;22.65;7.93;;;;;;;8.18;64.54;100485.38;5015057;28;20200;-93
2022/10/15 05:37:03;;;;;;;19.80;8.05;;;;;;;7.81;64.35;100422.06;4971300;28;20109;-92
2022/10/15 05:39:31;;;;;;;24.40;8.57;;;;;;;8.27;64.61;100490.28;4956649;28;20097;-92
2022/10/15 05:41:58;;;;;;;21.20;9.00;;;;;;;8.24;63.69;100481.59;4957133;28;20110;-93
2022/10/15 05:44:43;;;;;;;27.05;9.93;;;;;;;8.12;63.49;100442.06;4956877;29;20466;-92
2022/10/15 05:47:11;;;;;;;18.83;8.65;;;;;;;8.41;63.65;100489.56;4921075;29;20127;-93
2022/10/15 05:49:39;;;;;;;28.42;10.30;;;;;;;8.38;63.42;100511.06;4938340;29;20142;-90
2022/10/15 05:52:14;;;;;;;30.58;9.32;;;;;;;8.04;63.24;100458.91;4945834;28;20038;-93
2022/10/15 05:55:12;;;;;;;24.08;9.70;;;;;;;8.15;63.33;100485.91;4959603;28;20054;-93
2022/10/15 05:57:38;;;;;;;19.52;9.50;;;;;;;7.69;63.71;100428.56;4954399;28;20039;-92
2022/10/15 06:00:06;;;;;;;27.55;10.38;;;;;;;8.18;64.32;100501.72;4924484;28;20059;-93
2022/10/15 06:02:38;;;;;;;31.40;10.02;;;;;;;8.06;63.68;100486.69;4973562;28;20047;-91
2022/10/15 06:05:05;;;;;;;25.63;9.77;;;;;;;8.29;64.01;100518.91;4956019;28;20050;-91
2022/10/15 06:07:31;;;;;;;19.08;9.80;;;;;;;8.02;64.04;100464.63;4953060;28;20444;-90
2022/10/15 06:10:04;;;;;;;27.60;10.43;;;;;;;8.15;63.68;100476.94;4974611;28;20444;-92
2022/10/15 06:12:34;;;;;;;31.58;10.63;;;;;;;8.37;63.63;100507.47;4946763;28;20050;-92
2022/10/15 06:15:00;;;;;;;31.53;11.60;;;;;;;8.41;63.48;100513.22;5018641;28;20507;-93
2022/10/15 06:17:26;;;;;;;30.73;12.45;;;;;;;8.36;64.03;100500.41;5013104;28;20089;-92
2022/10/15 06:19:52;;;;;;;35.15;12.75;;;;;;;8.48;64.04;100486.56;4981449;28;20539;-93
2022/10/15 06:22:18;;;;;;;23.40;11.60;;;;;;;8.26;63.42;100442.34;4987044;28;20448;-92
2022/10/15 06:24:45;;;;;;;29.13;10.90;;;;;;;8.72;63.31;100510.56;4961878;28;20176;-91
2022/10/15 06:27:12;;;;;;;29.83;12.93;;;;;;;8.84;62.87;100541.09;5004782;28;20046;-91
2022/10/15 06:29:39;;;;;;;;;;;;;;;8.90;62.51;100542.75;4984076;28;20069;-92
2022/10/15 06:32:09;;;;;;;25.73;11.35;;;;;;;8.58;63.24;100500.19;4970917;28;19929;-90
2022/10/15 06:34:38;;;;;;;25.30;10.73;;;;;;;8.84;62.96;100530.19;4984376;28;20046;-89
2022/10/15 06:37:04;;;;;;;24.75;10.98;;;;;;;8.82;63.31;100514.13;4978838;28;20613;-90
2022/10/15 06:39:30;;;;;;;28.63;10.25;;;;;;;8.99;62.79;100524.75;4981050;28;20085;-91
2022/10/15 06:41:57;;;;;;;27.17;9.98;;;;;;;8.93;62.78;100512.22;4987147;28;20049;-92
2022/10/15 06:44:37;;;;;;;28.50;11.70;;;;;;;9.13;61.74;100546.84;4966719;28;20129;-91
2022/10/15 06:47:03;;;;;;;19.95;11.20;;;;;;;8.88;61.62;100502.13;4995089;28;20060;-91
2022/10/15 06:49:29;;;;;;;27.77;10.52;;;;;;;8.92;61.56;100513.31;4961776;28;20137;-91
2022/10/15 06:51:56;;;;;;;29.45;11.05;;;;;;;9.11;61.29;100536.22;4961848;28;20125;-93
2022/10/15 06:54:23;;;;;;;;;;;;;;;9.30;61.68;100549.28;5013949;28;20049;-91
2022/10/15 06:56:50;;;;;;;26.77;8.60;;;;;;;9.17;60.49;100526.97;5018233;28;20084;-95
2022/10/15 06:59:16;;;;;;;27.30;9.30;;;;;;;9.20;61.02;100505.66;5018518;28;20037;-93
2022/10/15 07:01:43;;;;;;;31.25;8.80;;;;;;;9.14;61.09;100499.41;4989605;28;20132;-91
2022/10/15 07:04:09;;;;;;;49.65;10.73;;;;;;;9.11;60.88;100508.94;5033902;28;20072;-93
2022/10/15 07:06:35;;;;;;;33.70;8.23;;;;;;;9.27;60.27;100512.50;5028520;28;20045;-90
2022/10/15 07:09:03;;;;;;;18.13;8.07;;;;;;;9.47;60.85;100538.94;5031067;28;20041;-91
2022/10/15 07:11:29;;;;;;;30.38;9.45;;;;;;;9.06;59.41;100478.13;5025851;28;20041;-90
2022/10/15 07:13:56;;;;;;;20.85;9.07;;;;;;;9.16;59.89;100527.22;4982325;28;20081;-93
2022/10/15 07:16:23;;;;;;;21.00;9.18;;;;;;;9.37;59.99;100568.94;4999991;28;20033;-91
2022/10/15 07:18:49;;;;;;;22.85;9.25;;;;;;;8.98;59.47;100493.13;5005853;28;20087;-89
2022/10/15 07:21:15;;;;;;;21.83;8.75;;;;;;;9.33;59.04;100546.84;4996717;28;20037;-95
2022/10/15 07:23:41;;;;;;;28.95;8.60;;;;;;;9.28;59.11;100554.22;4980522;28;20045;-90
2022/10/15 07:26:08;;;;;;;27.33;8.75;;;;;;;9.22;58.63;100549.88;4981104;28;20137;-91
2022/10/15 07:28:34;;;;;;;21.42;7.70;;;;;;;8.91;59.06;100496.13;4981279;28;20352;-93
2022/10/15 07:31:06;;;;;;;20.35;7.80;;;;;;;8.86;59.27;100498.84;4984518;28;20076;-94
2022/10/15 07:33:33;;;;;;;20.40;7.45;;;;;;;8.92;60.14;100507.84;5016202;28;20065;-89
2022/10/15 07:36:07;;;;;;;;;;;;;;;9.38;60.12;100574.13;5004712;28;20065;-92
2022/10/15 07:38:33;;;;;;;18.20;7.55;;;;;;;8.74;58.88;100492.03;5033698;28;20346;-93
2022/10/15 07:41:01;;;;;;;15.98;6.70;;;;;;;8.65;58.43;100506.22;4995254;28;20039;-91
2022/10/15 07:43:32;;;;;;;17.90;6.97;;;;;;;8.80;58.89;100521.75;4998616;28;20605;-92
2022/10/15 07:45:58;;;;;;;;;;;;;;;9.17;58.86;100580.69;5000487;28;20034;-89
2022/10/15 07:48:29;;;;;;;15.35;7.25;;;;;;;8.87;59.11;100516.88;5001016;28;19921;-91
2022/10/15 07:50:57;;;;;;;17.23;8.18;;;;;;;8.71;58.78;100504.31;5001759;28;20054;-93
2022/10/15 07:53:39;;;;;;;30.42;8.15;;;;;;;9.31;58.81;100589.97;5019490;28;20093;-91
2022/10/15 07:56:10;;;;;;;30.75;8.82;;;;;;;8.63;58.84;100483.84;5003970;28;20256;-93
2022/10/15 07:58:38;;;;;;;18.70;8.07;;;;;;;8.74;58.22;100517.41;4997339;28;20065;-90
2022/10/15 08:01:11;;;;;;;26.33;9.07;;;;;;;8.81;58.88;100528.03;5003558;28;20038;-91
2022/10/15 08:03:42;;;;;;;21.90;8.30;;;;;;;9.00;58.83;100540.03;5017350;28;20037;-91
2022/10/15 08:06:16;;;;;;;31.80;11.02;;;;;;;9.37;59.11;100590.78;4997591;28;20535;-90
2022/10/15 08:08:44;;;;;;;19.25;8.25;;;;;;;8.87;58.93;100505.13;4963113;29;20055;-92
2022/10/15 08:11:13;;;;;;;25.30;8.90;;;;;;;9.35;59.33;100569.22;4963626;28;20038;-90
2022/10/15 08:13:45;;;;;;;19.55;8.55;;;;;;;9.47;58.80;100582.59;4958622;29;20043;-90
2022/10/15 08:16:19;;;;;;;18.45;8.45;;;;;;;9.50;59.31;100576.56;4935559;28;20046;-89
2022/10/15 08:18:59;;;;;;;;;;;;;;;9.62;58.80;100588.03;4938467;28;20142;-93
2022/10/15 08:21:25;;;;;;;29.02;8.98;;;;;;;9.29;59.82;100544.94;4931625;28;19945;-89
2022/10/15 08:23:52;;;;;;;31.50;11.05;;;;;;;9.39;60.10;100539.47;4934640;28;20038;-89
2022/10/15 08:26:25;;;;;;;22.50;10.23;;;;;;;9.27;59.87;100511.66;4951275;28;20199;-88
2022/10/15 08:28:51;;;;;;;30.25;10.75;;;;;;;9.41;59.22;100551.75;4935131;29;20106;-89
2022/10/15 08:31:19;;;;;;;29.85;8.88;;;;;;;9.43;59.90;100539.75;4918580;29;20047;-90
2022/10/15 08:33:46;;;;;;;28.30;9.25;;;;;;;9.41;59.42;100562.69;4918265;29;20078;-93
2022/10/15 08:36:12;;;;;;;36.10;9.73;;;;;;;9.44;59.36;100541.38;4953724;28;20093;-91
2022/10/15 08:38:39;;;;;;;37.42;9.68;;;;;;;9.27;59.09;100517.09;4954883;28;20069;-89
2022/10/15 08:41:18;;;;;;;34.75;15.73;;;;;;;9.49;58.95;100533.19;4949966;28;20168;-89
2022/10/15 08:43:47;;;;;;;17.75;9.15;;;;;;;9.40;58.12;100538.38;4918087;29;20122;-91
2022/10/15 08:46:45;;;;;;;27.00;9.82;;;;;;;9.56;58.56;100555.53;4956345;28;20057;-91
2022/10/15 08:49:24;;;;;;;24.00;8.52;;;;;;;9.64;57.59;100568.66;4964979;28;20046;-89
2022/10/15 08:51:54;;;;;;;21.02;8.35;;;;;;;9.38;57.83;100554.22;4954950;28;20037;-92
2022/10/15 08:54:20;;;;;;;20.17;8.68;;;;;;;9.52;57.58;100577.13;4972418;28;20041;-91
2022/10/15 08:56:52;;;;;;;32.00;10.70;;;;;;;9.59;57.54;100595.94;5004740;28;20056;-89
2022/10/15 08:59:42;;;;;;;34.33;10.50;;;;;;;9.40;57.06;100560.19;5010989;28;20137;-88
2022/10/15 09:02:19;;;;;;;35.45;12.38;;;;;;;9.55;57.68;100562.94;5019753;28;20045;-92
2022/10/15 09:04:49;;;;;;;36.63;12.45;;;;;;;9.88;57.08;100602.47;4992409;28;20119;-87
2022/10/15 09:07:41;;;;;;;21.55;10.68;;;;;;;9.53;56.23;100556.91;5009562;28;20037;-91
2022/10/15 09:10:30;;;;;;;32.25;12.73;;;;;;;9.55;57.06;100557.47;4991880;28;20133;-89
2022/10/15 09:13:05;;;;;;;34.22;15.93;;;;;;;9.99;57.66;100605.16;5008685;28;20088;-89
2022/10/15 09:15:40;;;;;;;34.17;11.52;;;;;;;10.01;56.20;100597.53;4991834;28;20416;-89
2022/10/15 09:18:16;;;;;;;28.60;11.27;;;;;;;9.78;56.68;100556.06;5004233;28;20046;-90
2022/10/15 09:20:42;;;;;;;30.33;10.75;;;;;;;9.89;57.05;100559.56;4972319;28;20038;-88
2022/10/15 09:23:29;;;;;;;58.28;14.25;;;;;;;9.84;56.97;100524.09;4986126;28;20142;-89
2022/10/15 09:26:34;;;;;;;38.88;11.30;;;;;;;10.21;56.79;100572.03;4988346;28;20982;-89
2022/10/15 09:29:20;;;;;;;31.27;11.95;;;;;;;10.23;55.94;100547.97;4987369;28;20046;-88
2022/10/15 09:31:55;;;;;;;41.35;14.82;;;;;;;10.35;56.07;100584.03;4986971;28;20492;-89
2022/10/15 09:34:59;;;;;;;36.67;12.35;;;;;;;10.33;56.27;100564.34;4987883;28;20053;-92
2022/10/15 09:37:49;;;;;;;27.35;11.00;;;;;;;10.24;55.99;100552.34;4986113;28;20042;-90
2022/10/15 09:40:49;;;;;;;24.55;11.10;;;;;;;10.60;55.47;100606.88;4989144;28;20096;-90
2022/10/15 09:43:26;;;;;;;28.80;12.10;;;;;;;10.51;55.27;100584.78;4987578;28;20340;-89
2022/10/15 09:45:53;;;;;;;37.08;13.20;;;;;;;10.32;55.39;100546.31;4973800;28;20133;-91
2022/10/15 09:48:20;;;;;;;30.25;12.38;;;;;;;10.78;55.93;100617.16;4989199;28;20145;-89
2022/10/15 09:50:59;;;;;;;31.60;14.68;;;;;;;10.51;54.60;100563.72;4973746;28;20031;-89
2022/10/15 09:54:14;;;;;;;35.05;13.32;;;;;;;10.58;54.56;100566.94;4984173;28;20109;-89
2022/10/15 09:56:54;;;;;;;28.33;12.85;;;;;;;10.61;55.00;100543.69;4968544;28;20065;-90
2022/10/15 09:59:23;;;;;;;35.85;13.90;;;;;;;10.94;54.39;100599.56;4974731;28;20038;-88
2022/10/15 10:02:01;;;;;;;26.30;12.10;;;;;;;10.97;54.92;100615.41;4991214;28;20068;-88
2022/10/15 10:04:31;;;;;;;30.98;13.07;;;;;;;10.70;55.16;100569.34;5021061;28;20042;-89
2022/10/15 10:07:02;;;;;;;31.88;11.57;;;;;;;10.85;55.24;100600.44;4991326;28;20044;-88
2022/10/15 10:09:55;;;;;;;71.03;12.95;;;;;;;10.83;55.53;100598.00;5006991;28;20129;-89
2022/10/15 10:12:30;;;;;;;43.25;11.68;;;;;;;10.78;54.94;100606.22;4992858;28;20042;-89
2022/10/15 10:14:58;;;;;;;28.60;11.30;;;;;;;10.39;55.22;100548.75;5008083;28;20052;-92
2022/10/15 10:17:28;;;;;;;31.80;12.32;;;;;;;10.40;55.55;100543.00;4996016;28;20041;-91
2022/10/15 10:20:13;;;;;;;36.65;13.90;;;;;;;10.82;56.39;100601.81;4997742;28;20128;-93
2022/10/15 10:22:49;;;;;;;45.28;15.48;;;;;;;10.69;56.94;100580.56;5017997;28;20050;-91
2022/10/15 10:25:46;;;;;;;34.33;15.27;;;;;;;10.81;56.92;100595.53;4981636;28;20047;-94
2022/10/15 10:28:29;;;;;;;87.95;24.58;;;;;;;10.51;56.37;100558.25;4940359;28;20046;-89
2022/10/15 10:30:56;;;;;;;64.30;25.10;;;;;;;10.80;56.99;100602.13;4951036;28;20050;-90
2022/10/15 10:33:41;;;;;;;70.63;26.33;;;;;;;10.82;57.18;100599.06;4970147;28;20077;-91
2022/10/15 10:36:28;;;;;;;180.90;52.40;;;;;;;10.32;57.46;100524.44;4957579;28;20595;-92
2022/10/15 10:39:12;;;;;;;158.57;50.83;;;;;;;10.68;57.00;100593.41;4958514;28;20051;-92
2022/10/15 10:42:00;;;;;;;106.35;40.00;;;;;;;10.70;56.26;100604.09;4953232;28;20138;-88
2022/10/15 10:44:32;;;;;;;109.72;36.15;;;;;;;10.41;56.93;100563.78;4952220;28;20042;-90
2022/10/15 10:47:09;;;;;;;62.90;22.83;;;;;;;10.54;57.15;100568.63;4919860;29;20911;-90
2022/10/15 10:49:54;;;;;;;67.38;24.40;;;;;;;10.66;56.29;100571.03;4935809;29;20047;-89
2022/10/15 10:52:27;;;;;;;87.97;32.20;;;;;;;10.52;56.07;100551.66;4922176;29;20046;-91
2022/10/15 10:55:23;;;;;;;57.40;21.77;;;;;;;10.58;56.15;100574.34;4937957;29;20513;-93
2022/10/15 10:57:53;;;;;;;131.13;40.43;;;;;;;10.82;56.31;100605.38;4919767;29;20166;-89
2022/10/15 11:00:34;;;;;;;85.00;30.20;;;;;;;10.69;55.96;100570.44;4944778;28;20042;-91
2022/10/15 11:03:01;;;;;;;131.50;35.80;;;;;;;10.65;56.40;100558.44;4978501;28;20200;-89
2022/10/15 11:05:30;;;;;;;107.32;32.20;;;;;;;10.75;55.70;100563.84;4991742;28;20062;-92
2022/10/15 11:08:08;;;;;;;77.50;27.73;;;;;;;11.01;56.29;100600.06;4991469;28;20443;-93
2022/10/15 11:10:48;;;;;;;103.85;41.10;;;;;;;10.62;55.77;100534.38;4977564;28;20062;-90
2022/10/15 11:13:43;;;;;;;61.10;24.88;;;;;;;10.97;56.36;100601.72;4971388;28;20046;-92
2022/10/15 11:16:47;;;;;;;145.85;46.90;;;;;;;10.96;56.20;100600.09;4985155;28;20042;-92
2022/10/15 11:19:21;;;;;;;148.57;49.45;;;;;;;10.46;56.29;100519.16;4995436;28;20044;-92
2022/10/15 11:22:10;;;;;;;133.88;52.40;;;;;;;10.91;55.83;100578.22;4997235;28;20057;-92
2022/10/15 11:25:14;;;;;;;338.00;99.60;;;;;;;10.75;55.63;100555.63;5018168;28;20109;-92
2022/10/15 11:28:14;;;;;;;137.48;50.13;;;;;;;10.53;55.09;100516.97;5003740;28;20565;-91
2022/10/15 11:31:04;;;;;;;112.47;45.15;;;;;;;10.67;55.84;100528.09;4993981;28;20042;-91
2022/10/15 11:34:03;;;;;;;50.13;22.23;;;;;;;11.14;55.61;100589.56;5012960;28;20037;-87
2022/10/15 11:36:59;;;;;;;75.22;26.95;;;;;;;11.00;55.39;100578.47;5000948;28;20061;-87
2022/10/15 11:39:31;;;;;;;75.30;22.23;;;;;;;11.18;55.73;100601.56;4998796;28;20058;-90
2022/10/15 11:42:44;;;;;;;56.85;23.40;;;;;;;11.04;55.16;100568.56;4994686;28;20047;-89
2022/10/15 11:45:29;;;;;;;62.72;18.70;;;;;;;11.19;55.00;100595.00;4972711;28;20043;-92
2022/10/15 11:48:04;;;;;;;120.30;33.28;;;;;;;11.21;55.06;100592.78;4973442;28;20082;-93
2022/10/15 11:50:30;;;;;;;101.03;31.83;;;;;;;11.15;54.08;100592.00;4960701;28;20038;-88